Time;durP1;ratioP1;P1;durP2;ratioP2;P2;SDS_P1;SDS_P2;PMS_P1;PMS_P2;Temp;Humidity;BMP_temperature;BMP_pressure;BME280_temperature;BME280_humidity;BME280_pressure;Samples;Min_cycle;Max_cycle;Signal;HPM_P1;HPM_P2
2021/06/14 00:00:11;;;;;;;5.23;2.50;;;;;;;14.70;53.04;100198.03;5021358;23;20232;-78
2021/06/14 00:02:46;;;;;;;4.00;2.30;;;;;;;14.65;53.39;100204.13;5000708;23;20250;-77
2021/06/14 00:05:48;;;;;;;3.97;2.40;;;;;;;14.55;53.62;100193.13;5021788;23;20240;-78
2021/06/14 00:08:29;;;;;;;4.30;2.40;;;;;;;14.49;53.89;100202.94;5049916;28;20243;-78
2021/06/14 00:10:59;;;;;;;6.00;2.70;;;;;;;14.42;54.18;100201.38;5035169;28;20202;-79
2021/06/14 00:13:30;;;;;;;6.13;2.57;;;;;;;14.36;54.42;100196.94;5050426;28;20218;-77
2021/06/14 00:15:58;;;;;;;5.13;2.63;;;;;;;14.29;54.66;100191.59;5050496;28;20269;-78
2021/06/14 00:18:26;;;;;;;4.20;2.40;;;;;;;14.29;54.96;100198.88;5039338;23;20986;-78
2021/06/14 00:21:13;;;;;;;5.63;2.60;;;;;;;14.22;55.31;100196.28;5067798;23;20202;-76
2021/06/14 00:23:40;;;;;;;4.43;2.60;;;;;;;14.14;55.36;100185.00;4965728;28;20232;-78
2021/06/14 00:26:11;;;;;;;5.03;2.40;;;;;;;14.19;55.42;100193.19;4991209;23;20232;-77
2021/06/14 00:28:40;;;;;;;3.37;2.17;;;;;;;14.06;55.75;100195.03;4986141;28;20192;-78
2021/06/14 00:31:09;;;;;;;3.80;2.60;;;;;;;14.14;55.63;100176.94;4987192;28;20228;-77
2021/06/14 00:33:59;;;;;;;4.73;2.60;;;;;;;14.20;55.21;100182.22;4989760;28;20228;-78
2021/06/14 00:36:46;;;;;;;6.23;2.60;;;;;;;14.25;55.18;100190.44;5031216;23;20233;-79
2021/06/14 00:39:13;;;;;;;6.00;2.67;;;;;;;14.20;55.34;100178.69;5013290;28;20226;-77
2021/06/14 00:41:41;;;;;;;3.93;2.50;;;;;;;14.17;55.30;100179.97;4993032;28;20586;-77
2021/06/14 00:44:11;;;;;;;4.70;2.50;;;;;;;14.29;55.22;100182.69;5025924;28;20277;-78
2021/06/14 00:46:39;;;;;;;4.80;2.57;;;;;;;14.20;55.64;100178.69;5028505;28;20305;-78
2021/06/14 00:49:22;;;;;;;3.77;2.43;;;;;;;14.20;55.66;100174.13;5100627;23;20237;-78
2021/06/14 00:51:53;;;;;;;5.53;2.53;;;;;;;14.14;55.48;100168.84;5011554;23;20231;-77
2021/06/14 00:54:34;;;;;;;5.47;2.90;;;;;;;14.16;55.95;100169.41;5019988;28;20722;-78
2021/06/14 00:57:05;;;;;;;6.83;2.83;;;;;;;14.11;56.12;100167.41;5005733;28;20284;-77
2021/06/14 00:59:34;;;;;;;5.10;2.60;;;;;;;14.05;55.73;100166.44;5007699;28;20250;-78
2021/06/14 01:02:02;;;;;;;6.70;2.53;;;;;;;14.14;55.99;100166.16;5044226;23;20234;-78
2021/06/14 01:04:31;;;;;;;4.10;2.60;;;;;;;14.06;56.13;100169.97;4972852;28;20228;-78
2021/06/14 01:07:03;;;;;;;4.70;2.57;;;;;;;14.05;56.26;100169.16;4986419;28;20208;-77
2021/06/14 01:09:29;;;;;;;5.23;2.70;;;;;;;14.05;56.28;100171.84;4987725;28;20208;-78
2021/06/14 01:12:08;;;;;;;6.50;2.83;;;;;;;13.98;56.65;100173.00;4988596;28;20213;-77
2021/06/14 01:15:02;;;;;;;6.77;2.90;;;;;;;13.95;56.80;100182.34;4983383;28;20233;-77
2021/06/14 01:17:47;;;;;;;5.07;2.67;;;;;;;13.94;56.86;100182.59;4986508;28;20235;-80
2021/06/14 01:20:33;;;;;;;3.80;2.70;;;;;;;13.88;57.33;100175.41;4989424;28;20200;-79
2021/06/14 01:23:59;;;;;;;6.20;2.67;;;;;;;13.89;57.01;100166.28;4987517;28;20228;-79
2021/06/14 01:26:44;;;;;;;6.27;2.80;;;;;;;13.92;56.42;100153.19;4957124;28;20223;-78
2021/06/14 01:29:11;;;;;;;4.53;2.80;;;;;;;13.77;56.94;100149.22;4971364;28;20192;-78
2021/06/14 01:31:40;;;;;;;3.80;2.10;;;;;;;13.80;57.22;100160.41;4958625;28;20561;-78
2021/06/14 01:34:09;;;;;;;7.20;2.90;;;;;;;13.78;57.11;100162.47;4974281;28;20232;-78
2021/06/14 01:36:40;;;;;;;4.53;2.80;;;;;;;13.85;56.71;100155.16;4989797;23;20239;-81
2021/06/14 01:39:10;;;;;;;6.67;2.87;;;;;;;13.89;56.72;100161.72;5020860;23;20506;-85
2021/06/14 01:41:46;;;;;;;5.50;2.50;;;;;;;13.85;56.31;100159.72;5013545;28;20306;-82
2021/06/14 01:44:17;;;;;;;4.33;2.90;;;;;;;13.89;56.61;100168.97;5021743;23;20252;-80
2021/06/14 01:46:46;;;;;;;5.57;2.47;;;;;;;13.91;56.39;100151.53;4997163;28;20222;-80
2021/06/14 01:49:23;;;;;;;4.70;2.70;;;;;;;13.94;56.33;100148.41;5014330;28;20226;-80
2021/06/14 01:52:10;;;;;;;4.50;2.70;;;;;;;13.87;56.13;100154.91;5019330;28;20252;-80
2021/06/14 01:54:37;;;;;;;4.90;2.63;;;;;;;13.89;55.95;100144.75;5013090;28;20222;-80
2021/06/14 01:57:13;;;;;;;6.17;2.43;;;;;;;13.87;56.17;100161.13;5032141;28;20214;-80
2021/06/14 02:00:02;;;;;;;5.50;2.73;;;;;;;13.84;55.77;100128.44;5020381;28;20179;-80
2021/06/14 02:02:50;;;;;;;5.70;2.50;;;;;;;13.92;55.62;100147.78;5018536;28;20230;-80
2021/06/14 02:05:41;;;;;;;6.80;3.10;;;;;;;13.97;55.46;100145.22;5018312;28;20201;-79
2021/06/14 02:08:12;;;;;;;4.47;2.47;;;;;;;13.98;55.21;100149.56;5014379;28;20274;-80
2021/06/14 02:10:39;;;;;;;4.60;2.40;;;;;;;14.04;54.92;100151.34;4999993;23;20227;-81
2021/06/14 02:13:09;;;;;;;6.23;2.50;;;;;;;14.12;54.20;100150.19;4992074;28;20223;-80
2021/06/14 02:15:36;;;;;;;3.60;2.37;;;;;;;13.95;55.10;100141.13;5007612;28;20226;-80
2021/06/14 02:18:14;;;;;;;5.83;2.73;;;;;;;13.93;55.17;100138.66;4990430;28;20291;-80
2021/06/14 02:20:46;;;;;;;5.07;2.67;;;;;;;13.94;55.21;100120.63;5009359;28;20227;-80
2021/06/14 02:23:16;;;;;;;4.43;2.60;;;;;;;13.90;55.52;100139.13;4990693;28;20213;-80
2021/06/14 02:25:43;;;;;;;5.90;2.83;;;;;;;13.76;55.64;100118.00;4998082;23;20238;-80
2021/06/14 02:28:11;;;;;;;4.03;2.57;;;;;;;13.71;56.01;100112.47;4993587;28;20215;-80
2021/06/14 02:30:39;;;;;;;4.00;2.63;;;;;;;13.74;56.40;100115.53;5005810;28;20227;-80
2021/06/14 02:33:08;;;;;;;5.80;2.93;;;;;;;13.67;56.67;100120.97;5001792;23;20635;-80
2021/06/14 02:35:40;;;;;;;5.80;2.93;;;;;;;13.73;56.56;100123.81;5027118;23;20236;-80
2021/06/14 02:38:10;;;;;;;6.17;2.80;;;;;;;13.76;56.58;100124.22;4973202;28;20302;-80
2021/06/14 02:40:39;;;;;;;3.63;2.60;;;;;;;13.78;56.60;100121.25;4990697;28;20236;-81
2021/06/14 02:43:21;;;;;;;4.97;2.70;;;;;;;13.71;56.59;100118.69;4989386;28;20207;-81
2021/06/14 02:45:58;;;;;;;4.47;2.60;;;;;;;13.75;57.12;100132.50;4988591;28;20668;-80
2021/06/14 02:48:32;;;;;;;8.30;3.30;;;;;;;13.65;57.25;100127.66;4989755;28;20218;-81
2021/06/14 02:51:07;;;;;;;6.73;3.20;;;;;;;13.61;57.63;100124.59;4975099;28;20366;-80
2021/06/14 02:53:36;;;;;;;7.20;3.07;;;;;;;13.55;58.21;100130.06;4989507;28;20247;-80
2021/06/14 02:56:27;;;;;;;5.60;3.03;;;;;;;13.47;58.46;100133.06;4997283;23;20232;-80
2021/06/14 02:58:54;;;;;;;5.03;2.90;;;;;;;13.39;58.57;100122.63;4991762;28;20281;-80
2021/06/14 03:01:25;;;;;;;5.03;2.80;;;;;;;13.45;59.27;100129.78;5026844;23;20235;-81
2021/06/14 03:03:56;;;;;;;7.77;3.20;;;;;;;13.44;59.01;100128.94;5002294;23;20247;-80
2021/06/14 03:06:26;;;;;;;6.80;3.00;;;;;;;13.36;59.27;100125.75;5010177;28;20207;-80
2021/06/14 03:09:17;;;;;;;5.23;2.80;;;;;;;13.40;59.20;100124.25;5011950;28;20242;-84
2021/06/14 03:11:57;;;;;;;5.53;3.23;;;;;;;13.40;59.61;100132.31;5010837;28;20195;-80
2021/06/14 03:14:28;;;;;;;5.23;2.93;;;;;;;13.34;59.68;100130.56;4995860;28;20224;-78
2021/06/14 03:16:58;;;;;;;5.23;3.10;;;;;;;13.29;60.02;100123.16;4992733;28;20223;-78
2021/06/14 03:19:39;;;;;;;5.67;3.20;;;;;;;13.43;59.76;100121.13;4996528;28;20622;-78
2021/06/14 03:22:11;;;;;;;7.20;3.13;;;;;;;13.46;59.82;100129.56;4973622;28;20230;-78
2021/06/14 03:24:57;;;;;;;5.03;2.90;;;;;;;13.50;59.51;100132.59;4994060;28;20231;-78
2021/06/14 03:27:26;;;;;;;4.50;3.00;;;;;;;13.45;59.31;100114.44;5005979;28;20223;-78
2021/06/14 03:30:01;;;;;;;4.20;3.20;;;;;;;13.54;59.53;100125.72;4997187;23;20295;-78
2021/06/14 03:32:31;;;;;;;5.87;3.17;;;;;;;13.51;59.74;100120.81;4959512;28;20188;-78
2021/06/14 03:34:59;;;;;;;3.90;2.93;;;;;;;13.61;59.39;100132.69;4955800;28;20315;-78
2021/06/14 03:37:26;;;;;;;6.17;3.40;;;;;;;13.61;59.53;100126.47;4954877;28;20299;-77
2021/06/14 03:39:53;;;;;;;4.53;2.77;;;;;;;13.76;59.10;100132.28;4989321;28;20232;-78
2021/06/14 03:42:24;;;;;;;4.93;3.07;;;;;;;13.80;58.93;100129.94;5019648;23;20226;-78
2021/06/14 03:44:56;;;;;;;4.30;2.93;;;;;;;13.84;59.19;100129.25;4997005;28;20506;-78
2021/06/14 03:47:31;;;;;;;6.97;3.40;;;;;;;13.87;58.93;100128.78;5028688;28;20230;-80
2021/06/14 03:49:58;;;;;;;7.77;3.40;;;;;;;13.86;58.92;100127.16;5029154;28;20182;-80
2021/06/14 03:52:27;;;;;;;6.10;3.43;;;;;;;13.96;58.94;100126.59;5027702;28;20241;-79
2021/06/14 03:54:57;;;;;;;6.83;3.33;;;;;;;14.01;59.17;100130.25;5028615;28;20179;-77
2021/06/14 03:57:26;;;;;;;8.47;3.40;;;;;;;14.30;58.34;100128.56;5030245;28;20230;-79
2021/06/14 03:59:53;;;;;;;6.33;3.40;;;;;;;14.27;58.69;100130.91;5027785;28;20230;-78
2021/06/14 04:02:39;;;;;;;5.50;3.10;;;;;;;14.88;57.50;100128.63;5013781;28;20234;-78
2021/06/14 04:05:11;;;;;;;5.67;3.10;;;;;;;14.88;57.06;100150.19;5050783;23;20205;-78
2021/06/14 04:08:13;;;;;;;5.80;2.97;;;;;;;14.84;57.35;100145.50;5014849;28;20646;-78
2021/06/14 04:10:49;;;;;;;5.57;3.63;;;;;;;14.74;57.75;100142.59;5058164;23;20217;-78
2021/06/14 04:13:17;;;;;;;4.87;3.30;;;;;;;14.77;57.91;100142.94;5023078;23;20319;-78
2021/06/14 04:15:44;;;;;;;4.13;3.10;;;;;;;15.06;57.47;100146.59;5005349;23;20271;-78
2021/06/14 04:18:33;;;;;;;7.37;3.67;;;;;;;15.53;56.39;100150.06;5028798;28;20321;-80
2021/06/14 04:21:00;;;;;;;5.37;3.33;;;;;;;16.22;54.52;100148.94;5033007;23;20273;-83
2021/06/14 04:23:27;;;;;;;5.23;2.93;;;;;;;17.05;52.47;100141.88;5015736;28;20249;-82
2021/06/14 04:25:54;;;;;;;7.50;3.30;;;;;;;18.06;49.73;100148.53;5015051;28;20231;-86
2021/06/14 04:28:20;;;;;;;6.03;3.53;;;;;;;18.81;47.03;100139.44;4998487;28;20272;-87
2021/06/14 04:30:47;;;;;;;5.87;3.07;;;;;;;19.78;44.63;100152.47;4998767;28;20270;-82
2021/06/14 04:33:14;;;;;;;4.47;3.03;;;;;;;20.59;41.85;100168.94;5015039;28;20237;-88
2021/06/14 04:35:40;;;;;;;6.03;3.00;;;;;;;20.98;40.38;100189.09;4998467;28;20264;-80
2021/06/14 04:38:07;;;;;;;7.27;3.40;;;;;;;21.17;39.78;100172.19;5014891;28;20254;-81
2021/06/14 04:40:34;;;;;;;5.63;3.07;;;;;;;19.37;43.94;100154.16;5014967;28;20598;-82
2021/06/14 04:43:02;;;;;;;6.03;3.50;;;;;;;18.23;46.73;100140.31;5015263;28;20590;-79
2021/06/14 04:45:29;;;;;;;5.63;3.37;;;;;;;18.04;47.35;100156.13;4998991;28;20267;-81
2021/06/14 04:47:56;;;;;;;5.07;3.47;;;;;;;17.66;47.85;100148.94;5014790;28;20253;-79
2021/06/14 04:50:23;;;;;;;7.03;3.50;;;;;;;17.76;48.43;100150.94;4998629;28;20241;-88
2021/06/14 04:52:50;;;;;;;5.60;3.17;;;;;;;17.68;48.03;100145.97;4982920;28;20226;-84
2021/06/14 04:55:17;;;;;;;7.60;3.00;;;;;;;17.66;48.13;100148.94;5015106;28;20237;-81
2021/06/14 04:57:44;;;;;;;6.90;3.20;;;;;;;17.73;48.46;100151.44;4998491;28;20280;-88
2021/06/14 05:00:11;;;;;;;8.10;3.47;;;;;;;17.90;48.01;100163.03;5014617;28;20731;-89
2021/06/14 05:02:38;;;;;;;8.03;3.23;;;;;;;17.95;48.20;100153.06;4998473;28;20400;-80
2021/06/14 05:05:05;;;;;;;7.37;3.17;;;;;;;18.08;47.87;100148.28;5014530;28;20626;-80
2021/06/14 05:07:32;;;;;;;6.57;3.90;;;;;;;18.08;47.14;100156.41;4998737;28;20264;-87
2021/06/14 05:10:00;;;;;;;6.60;3.07;;;;;;;18.16;46.98;100151.34;4998362;28;20249;-87
2021/06/14 05:12:27;;;;;;;6.43;3.50;;;;;;;18.24;46.86;100158.22;5014343;28;20244;-81
2021/06/14 05:14:53;;;;;;;6.00;3.13;;;;;;;18.35;46.03;100154.50;5015004;28;20694;-81
2021/06/14 05:17:20;;;;;;;5.33;3.03;;;;;;;18.27;46.30;100157.69;4998294;28;20276;-79
2021/06/14 05:19:47;;;;;;;5.47;3.00;;;;;;;18.34;45.43;100153.69;5014636;28;20241;-80
2021/06/14 05:22:14;;;;;;;6.07;3.30;;;;;;;17.89;46.44;100151.34;5014513;28;20645;-87
2021/06/14 05:24:41;;;;;;;6.00;3.00;;;;;;;17.78;47.00;100148.78;5014763;28;20227;-87
2021/06/14 05:27:08;;;;;;;6.73;3.43;;;;;;;18.18;46.18;100151.94;5014485;28;20232;-82
2021/06/14 05:29:35;;;;;;;5.70;3.30;;;;;;;18.55;45.56;100157.44;5014518;28;20245;-84
2021/06/14 05:32:03;;;;;;;6.77;3.13;;;;;;;18.39;45.70;100158.34;4998102;28;20231;-79
2021/06/14 05:34:30;;;;;;;5.37;3.20;;;;;;;18.48;45.61;100165.75;5030749;28;20712;-87
2021/06/14 05:36:56;;;;;;;7.83;3.33;;;;;;;18.36;46.20;100159.69;5014690;28;20328;-85
2021/06/14 05:39:23;;;;;;;5.43;3.10;;;;;;;18.37;44.74;100155.91;5014337;28;20324;-84
2021/06/14 05:41:50;;;;;;;6.30;3.50;;;;;;;18.64;44.86;100155.88;4982193;28;20233;-81
2021/06/14 05:44:17;;;;;;;8.37;4.13;;;;;;;18.69;44.70;100161.34;4997665;28;20257;-88
2021/06/14 05:46:44;;;;;;;5.87;3.50;;;;;;;18.82;44.76;100154.66;5014913;28;20242;-88
2021/06/14 05:49:11;;;;;;;6.60;3.80;;;;;;;19.09;43.91;100158.09;5014615;28;20292;-89
2021/06/14 05:51:38;;;;;;;5.37;3.40;;;;;;;19.16;43.42;100147.81;5014813;28;20704;-87
2021/06/14 05:54:06;;;;;;;6.73;3.70;;;;;;;19.14;43.44;100162.72;5014441;28;20639;-89
2021/06/14 05:56:33;;;;;;;5.20;3.30;;;;;;;18.81;43.96;100156.53;4998489;28;20281;-86
2021/06/14 05:59:00;;;;;;;6.30;3.23;;;;;;;19.10;43.00;100151.59;4998503;28;20309;-86
2021/06/14 06:01:28;;;;;;;6.80;3.30;;;;;;;19.17;42.91;100152.19;5014635;28;20234;-86
2021/06/14 06:03:55;;;;;;;6.43;3.43;;;;;;;19.17;42.25;100152.19;5014834;28;20230;-84
2021/06/14 06:06:22;;;;;;;6.07;3.37;;;;;;;18.95;42.45;100142.50;4997730;28;20265;-84
2021/06/14 06:08:48;;;;;;;6.87;3.37;;;;;;;19.29;43.34;100160.09;5014390;28;20230;-88
2021/06/14 06:11:15;;;;;;;7.50;3.53;;;;;;;19.13;42.51;100147.53;5014223;28;20851;-83
2021/06/14 06:13:42;;;;;;;5.30;3.27;;;;;;;19.32;41.66;100152.25;4997814;28;20243;-85
2021/06/14 06:16:09;;;;;;;5.23;3.30;;;;;;;19.42;42.18;100161.53;5013672;28;20231;-85
2021/06/14 06:18:35;;;;;;;7.17;3.60;;;;;;;19.36;41.32;100149.84;5000724;28;20325;-83
2021/06/14 06:21:02;;;;;;;7.40;3.70;;;;;;;19.70;40.61;100142.91;5017828;28;20237;-93
2021/06/14 06:23:29;;;;;;;8.33;3.60;;;;;;;19.66;40.81;100162.75;5012068;28;20245;-81
2021/06/14 06:25:56;;;;;;;6.50;3.17;;;;;;;19.32;41.59;100160.38;5000054;28;20235;-91
2021/06/14 06:28:23;;;;;;;5.70;3.60;;;;;;;19.44;41.00;100148.53;4984995;28;20268;-92
2021/06/14 06:30:50;;;;;;;7.67;3.90;;;;;;;19.73;40.80;100142.41;5000867;28;20234;-94
2021/06/14 06:33:17;;;;;;;6.70;3.83;;;;;;;19.96;39.76;100140.28;4997750;28;20278;-85
2021/06/14 06:35:43;;;;;;;5.17;3.30;;;;;;;19.83;39.59;100138.88;4997462;28;20231;-81
2021/06/14 06:38:11;;;;;;;6.10;2.93;;;;;;;20.30;39.12;100144.16;4997362;28;20247;-93
2021/06/14 06:40:37;;;;;;;6.20;3.60;;;;;;;20.71;38.97;100141.47;4998287;28;20223;-91
2021/06/14 06:43:06;;;;;;;5.83;3.53;;;;;;;21.15;37.75;100139.75;5017104;28;20230;-83
2021/06/14 06:45:33;;;;;;;7.53;3.77;;;;;;;21.00;36.94;100137.84;5017271;28;20261;-93
2021/06/14 06:48:01;;;;;;;7.17;3.53;;;;;;;21.30;36.49;100136.19;5000699;28;20222;-91
2021/06/14 06:50:29;;;;;;;5.83;3.50;;;;;;;21.58;36.72;100154.59;5017352;28;20242;-81
2021/06/14 06:52:55;;;;;;;5.73;3.30;;;;;;;22.06;35.48;100142.13;5017168;28;20296;-82
2021/06/14 06:55:22;;;;;;;6.80;3.80;;;;;;;22.62;34.99;100153.44;5000789;28;20227;-87
2021/06/14 06:57:49;;;;;;;6.40;3.73;;;;;;;22.64;34.17;100148.47;4982157;28;20281;-87
2021/06/14 07:00:19;;;;;;;5.20;3.50;;;;;;;23.10;34.05;100142.59;4980528;28;20674;-83
2021/06/14 07:02:46;;;;;;;7.07;3.50;;;;;;;22.99;32.46;100139.19;4997016;28;20232;-85
2021/06/14 07:05:33;;;;;;;6.47;3.60;;;;;;;22.59;33.89;100147.72;4983366;28;20251;-86
2021/06/14 07:08:00;;;;;;;4.97;3.40;;;;;;;23.19;32.75;100149.06;4981135;28;20248;-90
2021/06/14 07:10:27;;;;;;;5.47;3.30;;;;;;;22.72;33.14;100145.16;4980843;28;20234;-80
2021/06/14 07:12:57;;;;;;;4.13;3.27;;;;;;;22.77;32.78;100136.91;4981198;28;20352;-83
2021/06/14 07:15:24;;;;;;;4.10;3.10;;;;;;;22.81;31.79;100131.72;4996765;28;20315;-90
2021/06/14 07:17:50;;;;;;;4.67;2.77;;;;;;;22.82;32.02;100136.06;4997061;28;20279;-87
2021/06/14 07:20:18;;;;;;;4.03;2.90;;;;;;;23.40;31.63;100134.06;4996271;28;20240;-87
2021/06/14 07:22:44;;;;;;;3.53;2.53;;;;;;;23.97;30.06;100133.06;4980459;28;20247;-89
2021/06/14 07:25:12;;;;;;;4.63;3.03;;;;;;;23.18;30.90;100131.06;4996646;28;20283;-86
2021/06/14 07:27:41;;;;;;;5.50;2.90;;;;;;;22.80;31.41;100133.63;4980128;28;20318;-86
2021/06/14 07:30:27;;;;;;;4.07;2.90;;;;;;;22.69;31.81;100142.97;4989130;28;20231;-85
2021/06/14 07:32:54;;;;;;;6.27;2.70;;;;;;;22.10;32.12;100134.16;5015970;28;20245;-80
2021/06/14 07:35:20;;;;;;;3.83;2.87;;;;;;;23.41;31.59;100134.88;4999768;28;20228;-89
2021/06/14 07:37:47;;;;;;;5.63;3.40;;;;;;;23.16;32.19;100131.34;4999719;28;20244;-80
2021/06/14 07:40:15;;;;;;;6.33;3.40;;;;;;;23.05;31.78;100129.81;4999324;28;20239;-80
2021/06/14 07:42:41;;;;;;;3.23;2.50;;;;;;;22.53;32.12;100132.50;5015747;28;20333;-83
2021/06/14 07:45:09;;;;;;;4.00;2.37;;;;;;;23.31;30.81;100132.28;5016036;28;20233;-84
2021/06/14 07:47:35;;;;;;;5.23;2.70;;;;;;;23.48;31.43;100127.97;5015301;28;20309;-83
2021/06/14 07:50:04;;;;;;;7.70;3.00;;;;;;;23.58;31.09;100133.31;4999254;28;20555;-83
2021/06/14 07:52:31;;;;;;;5.60;2.57;;;;;;;23.38;30.93;100121.78;4999451;28;20237;-85
2021/06/14 07:54:57;;;;;;;4.00;2.57;;;;;;;23.28;30.94;100122.75;5015532;28;20225;-84
2021/06/14 07:57:24;;;;;;;4.37;2.60;;;;;;;23.41;30.26;100132.16;5015691;28;20650;-83
2021/06/14 07:59:51;;;;;;;4.10;2.47;;;;;;;23.03;30.40;100126.56;4999195;28;20306;-88
2021/06/14 08:02:18;;;;;;;3.97;2.40;;;;;;;22.82;31.00;100125.13;4999354;28;20637;-89
2021/06/14 08:04:45;;;;;;;3.37;2.57;;;;;;;22.70;30.49;100111.06;4999632;28;20229;-87
2021/06/14 08:07:11;;;;;;;3.17;2.40;;;;;;;22.35;31.31;100125.78;5015808;28;20318;-84
2021/06/14 08:09:38;;;;;;;4.27;2.60;;;;;;;22.02;31.49;100113.78;4999561;28;20359;-85
2021/06/14 08:12:06;;;;;;;5.90;2.20;;;;;;;22.13;32.51;100114.50;5015049;28;20255;-83
2021/06/14 08:14:33;;;;;;;3.73;2.40;;;;;;;21.88;31.23;100110.00;4998734;28;20239;-79
2021/06/14 08:17:02;;;;;;;4.57;2.50;;;;;;;21.98;31.99;100115.41;4996500;28;20231;-81
2021/06/14 08:27:23;;;;;;;3.93;2.27;;;;;;;21.68;31.73;100110.94;5035050;28;20511;-85
2021/06/14 08:29:50;;;;;;;3.73;2.23;;;;;;;21.47;32.36;100093.03;5016336;28;20638;-82
2021/06/14 08:32:17;;;;;;;5.07;2.80;;;;;;;21.62;32.32;100103.88;4997588;28;20243;-82
2021/06/14 08:34:44;;;;;;;3.90;2.43;;;;;;;22.02;31.81;100112.97;4981670;28;20273;-84
2021/06/14 08:37:11;;;;;;;4.00;2.63;;;;;;;21.95;31.50;100108.63;4997678;28;20334;-85
2021/06/14 08:39:38;;;;;;;4.07;2.47;;;;;;;21.60;32.33;100114.25;4997388;28;20701;-79
2021/06/14 08:42:05;;;;;;;4.40;2.40;;;;;;;21.35;33.17;100112.44;4997346;28;20642;-79
2021/06/14 08:44:33;;;;;;;4.50;2.67;;;;;;;21.83;33.10;100120.94;4997732;28;20253;-85
2021/06/14 08:47:03;;;;;;;3.67;2.40;;;;;;;21.74;32.45;100104.34;5015092;28;20249;-80
2021/06/14 08:49:29;;;;;;;5.57;2.70;;;;;;;22.12;32.29;100099.22;4998045;28;20234;-79
2021/06/14 08:51:58;;;;;;;4.93;2.90;;;;;;;22.23;32.05;100109.78;4980754;28;20581;-80
2021/06/14 08:54:25;;;;;;;3.17;2.37;;;;;;;22.55;32.13;100105.69;4980167;28;20261;-80
2021/06/14 08:56:54;;;;;;;5.23;2.90;;;;;;;22.10;32.35;100104.97;4965352;28;20228;-80
2021/06/14 08:59:22;;;;;;;3.50;2.83;;;;;;;22.30;32.94;100098.56;4981308;28;20231;-80
2021/06/14 09:01:49;;;;;;;3.90;2.60;;;;;;;22.34;32.31;100094.97;4981500;28;20224;-79
2021/06/14 09:04:16;;;;;;;5.17;3.03;;;;;;;22.86;31.84;100098.88;4997048;28;20672;-80
2021/06/14 09:06:43;;;;;;;4.47;2.83;;;;;;;22.71;31.60;100102.59;4981022;28;20239;-85
2021/06/14 09:09:10;;;;;;;5.37;2.97;;;;;;;22.79;32.14;100107.41;4980909;28;20234;-79
2021/06/14 09:11:39;;;;;;;4.17;3.00;;;;;;;22.95;31.56;100097.16;4997647;28;20718;-79
2021/06/14 09:14:17;;;;;;;6.93;2.90;;;;;;;22.31;33.39;100094.69;4980713;28;20229;-79
2021/06/14 09:16:44;;;;;;;4.57;3.27;;;;;;;22.51;32.46;100093.72;4981152;28;20307;-79
2021/06/14 09:19:25;;;;;;;4.77;3.20;;;;;;;22.54;32.85;100096.69;4980880;28;20231;-80
2021/06/14 09:21:55;;;;;;;5.50;3.27;;;;;;;22.67;32.64;100087.84;4981763;28;20704;-83
2021/06/14 09:24:26;;;;;;;5.70;3.60;;;;;;;23.00;32.42;100088.09;4981956;28;20233;-80
2021/06/14 09:26:55;;;;;;;5.77;3.20;;;;;;;22.80;32.22;100084.47;4981369;28;20228;-82
2021/06/14 09:29:27;;;;;;;4.63;3.40;;;;;;;22.72;32.29;100087.00;5004178;28;20218;-81
2021/06/14 09:31:58;;;;;;;5.50;3.27;;;;;;;22.90;32.17;100077.25;5011969;28;20576;-85
2021/06/14 09:34:41;;;;;;;5.17;3.07;;;;;;;22.98;32.58;100090.28;5016450;28;20317;-80
2021/06/14 09:37:11;;;;;;;6.33;2.90;;;;;;;23.26;32.52;100082.03;5001175;28;20286;-81
2021/06/14 09:39:46;;;;;;;5.37;3.43;;;;;;;23.55;31.09;100073.75;4984735;28;20235;-79
2021/06/14 09:42:26;;;;;;;3.93;3.00;;;;;;;24.32;30.24;100071.50;5000316;28;20258;-83
2021/06/14 09:45:05;;;;;;;6.43;3.80;;;;;;;24.54;30.27;100070.88;5000920;28;20224;-79
2021/06/14 09:47:32;;;;;;;5.00;3.20;;;;;;;24.20;30.23;100048.44;5000764;28;20232;-81
2021/06/14 09:50:07;;;;;;;6.17;3.40;;;;;;;24.13;29.69;100035.09;5002697;28;20512;-79
2021/06/14 09:52:34;;;;;;;6.80;3.20;;;;;;;24.01;29.49;100043.78;5017618;28;20694;-80
2021/06/14 09:55:07;;;;;;;6.63;3.30;;;;;;;24.55;29.95;100050.56;4985221;28;20234;-84
2021/06/14 09:57:34;;;;;;;5.27;3.40;;;;;;;24.18;30.27;100035.06;4985082;28;20310;-83
2021/06/14 10:00:11;;;;;;;6.13;3.63;;;;;;;23.88;30.23;100051.94;5018428;28;20254;-80
2021/06/14 10:02:43;;;;;;;5.30;3.70;;;;;;;23.48;31.70;100045.94;5001663;28;20227;-81
2021/06/14 10:05:21;;;;;;;7.33;3.63;;;;;;;22.97;31.54;100045.75;5001504;28;20281;-81
2021/06/14 10:07:49;;;;;;;6.33;3.63;;;;;;;23.38;31.83;100045.22;4985019;28;20570;-86
2021/06/14 10:10:22;;;;;;;7.03;3.43;;;;;;;23.74;30.89;100029.19;4984789;28;20579;-84
2021/06/14 10:12:51;;;;;;;6.13;3.60;;;;;;;23.55;30.80;100015.50;4985143;28;20235;-82
2021/06/14 10:15:27;;;;;;;6.50;3.70;;;;;;;23.85;30.88;100006.00;5001286;28;20680;-82
2021/06/14 10:17:54;;;;;;;5.67;3.20;;;;;;;23.80;31.58;99993.22;5001100;28;20286;-85
2021/06/14 10:20:24;;;;;;;5.10;3.80;;;;;;;23.75;32.28;100003.44;5000154;28;20629;-84
2021/06/14 10:22:53;;;;;;;4.70;3.23;;;;;;;23.72;31.48;100004.84;5001036;28;20317;-81
2021/06/14 10:25:37;;;;;;;6.47;3.87;;;;;;;23.48;31.08;99993.16;4986829;28;20596;-84
2021/06/14 10:28:24;;;;;;;6.77;4.13;;;;;;;23.06;32.45;99994.00;4990134;28;20233;-81
2021/06/14 10:30:52;;;;;;;5.53;3.60;;;;;;;23.89;31.66;99987.91;5009844;28;20359;-86
2021/06/14 10:33:24;;;;;;;6.60;3.70;;;;;;;23.75;31.83;99995.25;5020387;28;20237;-79
2021/06/14 10:35:53;;;;;;;5.10;3.60;;;;;;;23.66;31.38;99970.47;5020319;28;20743;-80
2021/06/14 10:38:27;;;;;;;5.43;3.87;;;;;;;23.64;31.80;99972.69;5035744;28;20727;-79
2021/06/14 10:40:55;;;;;;;6.37;3.93;;;;;;;23.28;32.08;99972.41;5036914;28;20304;-83
2021/06/14 10:43:26;;;;;;;5.30;3.90;;;;;;;23.64;31.50;99965.31;5036739;28;20233;-78
2021/06/14 10:45:54;;;;;;;7.47;3.70;;;;;;;22.66;33.21;99976.16;5032712;28;20283;-81
2021/06/14 10:48:27;;;;;;;6.60;3.80;;;;;;;23.47;33.18;99967.75;5002607;28;20632;-79
2021/06/14 10:51:04;;;;;;;5.87;3.63;;;;;;;23.68;31.08;99963.59;5004458;28;20226;-79
2021/06/14 10:53:32;;;;;;;5.37;3.70;;;;;;;24.49;30.68;99972.34;4999532;28;20641;-79
2021/06/14 10:56:01;;;;;;;5.73;3.53;;;;;;;24.72;31.22;99976.00;5000279;28;20261;-78
2021/06/14 10:58:30;;;;;;;6.13;3.50;;;;;;;25.33;30.00;99965.41;4983407;28;20282;-80
2021/06/14 11:01:17;;;;;;;6.93;3.83;;;;;;;24.76;30.01;99974.28;4997432;28;20228;-83
2021/06/14 11:03:46;;;;;;;4.23;3.50;;;;;;;24.43;29.26;99959.88;5000009;28;20347;-83
2021/06/14 11:06:16;;;;;;;6.47;3.30;;;;;;;24.31;30.80;99971.28;4999254;28;20236;-84
2021/06/14 11:08:44;;;;;;;6.27;3.27;;;;;;;24.24;30.41;99965.41;4999767;28;20228;-84
2021/06/14 11:11:11;;;;;;;5.90;3.60;;;;;;;24.38;30.36;99969.00;5000108;28;20236;-84
2021/06/14 11:13:49;;;;;;;4.00;3.10;;;;;;;24.28;28.77;99960.16;5017293;28;20239;-84
2021/06/14 11:16:17;;;;;;;4.93;3.17;;;;;;;24.66;29.01;99971.75;4982851;28;20223;-80
2021/06/14 11:18:44;;;;;;;5.60;3.38;;;;;;;24.70;29.17;99959.88;4999841;28;20691;-84
2021/06/14 11:21:14;;;;;;;6.37;3.23;;;;;;;25.01;28.59;99960.06;4980072;28;20229;-84
2021/06/14 11:23:43;;;;;;;5.10;3.30;;;;;;;25.13;28.55;99943.94;4996079;28;20237;-80
2021/06/14 11:26:11;;;;;;;5.07;3.80;;;;;;;24.80;29.99;99943.22;4995809;28;20230;-79
2021/06/14 11:28:40;;;;;;;4.77;3.50;;;;;;;24.45;29.36;99952.97;4996107;28;20224;-84
2021/06/14 11:31:24;;;;;;;5.50;3.90;;;;;;;24.27;29.57;99951.13;5007691;28;20236;-85
2021/06/14 11:33:53;;;;;;;4.77;3.30;;;;;;;24.89;28.23;99926.91;5015246;28;20226;-78
2021/06/14 11:36:25;;;;;;;5.50;3.20;;;;;;;24.68;28.70;99937.47;5016364;28;20237;-82
2021/06/14 11:38:54;;;;;;;5.70;3.33;;;;;;;25.09;28.69;99931.94;5015779;28;20247;-78
2021/06/14 11:41:30;;;;;;;4.63;3.60;;;;;;;25.20;28.67;99940.75;5015518;28;20228;-78
2021/06/14 11:44:29;;;;;;;6.90;3.80;;;;;;;25.31;28.24;99934.72;5015867;28;20242;-83
2021/06/14 11:47:11;;;;;;;8.07;4.00;;;;;;;25.84;28.31;99912.09;5015325;28;20566;-79
2021/06/14 11:49:38;;;;;;;5.90;3.60;;;;;;;25.99;28.66;99921.88;5015378;28;20237;-81
2021/06/14 11:52:35;;;;;;;4.80;3.50;;;;;;;25.77;27.53;99926.25;4999331;28;20325;-83